SARE/RES METAR and TAF weather

Enter ICAO airport designator
Station Type Date Time Source
SARE METAR 2022/12/08 12:00 UTC NOAA

SARE 081200Z 01009KT 340V040 CAVOK 34/22 Q1004 RMK PP///


Station Type Date Time Source
SARE Decoded METAR 2022/12/08 12:00 UTC NOAA

Resistencia Aero., Argentina (SARE) 27-27S 059-03W 52M
Dec 08, 2022 - 07:00 AM EST / 2022.12.08 1200 UTC
Wind: from the N (010 degrees) at 10 MPH (9 KT) (direction variable):0
Visibility: greater than 7 mile(s):0
Temperature: 93 F (34 C)
Heat index: 100.0 F (37.8 C):1
Dew Point: 71 F (22 C)
Relative Humidity: 49%
Pressure (altimeter): 29.65 in. Hg (1004 hPa)
ob: SARE 081200Z 01009KT 340V040 CAVOK 34/22 Q1004 RMK PP///
cycle: 12

Station Type Date Time Source
SARE TAF 2022/12/08 12:06 UTC NOAA

TAF TAF SARE 081100Z 0812/0912 05010KT CAVOK TX41/0818Z TN25/0910Z
TEMPO 0816/0822 9999 SCT030 FEW045TCU
BECMG 0822/0824 CAVOK

Example: see airport list